sensor_id;sensor_type;location;lat;lon;timestamp;temperature;humidity
3478;DHT22;37937;61.490;23.506;2023-04-15T00:01:22;-0.10;1.00
3478;DHT22;37937;61.490;23.506;2023-04-15T00:03:49;0.00;1.00
3478;DHT22;37937;61.490;23.506;2023-04-15T00:06:16;0.00;1.00
3478;DHT22;37937;61.490;23.506;2023-04-15T00:08:42;0.00;1.00
3478;DHT22;37937;61.490;23.506;2023-04-15T00:11:08;0.00;1.00
3478;DHT22;37937;61.490;23.506;2023-04-15T00:13:33;0.00;1.00
3478;DHT22;37937;61.490;23.506;2023-04-15T00:15:59;-0.10;1.00
3478;DHT22;37937;61.490;23.506;2023-04-15T00:18:25;-0.10;1.00
3478;DHT22;37937;61.490;23.506;2023-04-15T00:20:51;-0.10;1.00
3478;DHT22;37937;61.490;23.506;2023-04-15T00:23:17;-0.20;1.00
3478;DHT22;37937;61.490;23.506;2023-04-15T00:25:42;-0.20;1.00
3478;DHT22;37937;61.490;23.506;2023-04-15T00:28:08;-0.20;1.00
3478;DHT22;37937;61.490;23.506;2023-04-15T00:30:34;-0.20;1.00
3478;DHT22;37937;61.490;23.506;2023-04-15T00:33:00;-0.20;1.00
3478;DHT22;37937;61.490;23.506;2023-04-15T00:35:28;-0.20;1.00
3478;DHT22;37937;61.490;23.506;2023-04-15T00:37:57;-0.30;1.00
3478;DHT22;37937;61.490;23.506;2023-04-15T00:40:23;-0.30;1.00
3478;DHT22;37937;61.490;23.506;2023-04-15T00:42:49;-0.30;1.00
3478;DHT22;37937;61.490;23.506;2023-04-15T00:45:14;-0.30;1.00
3478;DHT22;37937;61.490;23.506;2023-04-15T00:47:40;-0.40;1.00
3478;DHT22;37937;61.490;23.506;2023-04-15T00:50:07;-0.50;1.00
3478;DHT22;37937;61.490;23.506;2023-04-15T00:52:33;-0.50;1.00
3478;DHT22;37937;61.490;23.506;2023-04-15T00:54:59;-0.50;1.00
3478;DHT22;37937;61.490;23.506;2023-04-15T00:57:25;-0.60;1.00
3478;DHT22;37937;61.490;23.506;2023-04-15T00:59:52;-0.70;1.00
3478;DHT22;37937;61.490;23.506;2023-04-15T01:02:18;-0.70;1.00
3478;DHT22;37937;61.490;23.506;2023-04-15T01:04:44;-0.80;1.00
3478;DHT22;37937;61.490;23.506;2023-04-15T01:07:09;-0.80;1.00
3478;DHT22;37937;61.490;23.506;2023-04-15T01:09:35;-0.80;1.00
3478;DHT22;37937;61.490;23.506;2023-04-15T01:12:01;-0.80;1.00
3478;DHT22;37937;61.490;23.506;2023-04-15T01:14:28;-0.90;1.00
3478;DHT22;37937;61.490;23.506;2023-04-15T01:16:54;-1.00;1.00
3478;DHT22;37937;61.490;23.506;2023-04-15T01:19:20;-0.90;1.00
3478;DHT22;37937;61.490;23.506;2023-04-15T01:21:46;-0.90;1.00
3478;DHT22;37937;61.490;23.506;2023-04-15T01:24:12;-1.00;1.00
3478;DHT22;37937;61.490;23.506;2023-04-15T01:26:40;-1.10;1.00
3478;DHT22;37937;61.490;23.506;2023-04-15T01:29:06;-1.10;1.00
3478;DHT22;37937;61.490;23.506;2023-04-15T01:31:32;-1.10;1.00
3478;DHT22;37937;61.490;23.506;2023-04-15T01:33:58;-1.10;1.00
3478;DHT22;37937;61.490;23.506;2023-04-15T01:36:24;-1.20;1.00
3478;DHT22;37937;61.490;23.506;2023-04-15T01:38:50;-1.10;1.00
3478;DHT22;37937;61.490;23.506;2023-04-15T01:41:15;-1.10;1.00
3478;DHT22;37937;61.490;23.506;2023-04-15T01:43:41;-1.20;1.00
3478;DHT22;37937;61.490;23.506;2023-04-15T01:46:07;-1.20;1.00
3478;DHT22;37937;61.490;23.506;2023-04-15T01:48:32;-1.20;1.00
3478;DHT22;37937;61.490;23.506;2023-04-15T01:50:58;-1.20;1.00
3478;DHT22;37937;61.490;23.506;2023-04-15T01:53:24;-1.10;1.00
3478;DHT22;37937;61.490;23.506;2023-04-15T01:55:50;-1.20;1.00
3478;DHT22;37937;61.490;23.506;2023-04-15T01:58:17;-1.20;1.00
3478;DHT22;37937;61.490;23.506;2023-04-15T02:00:43;-1.30;1.00
3478;DHT22;37937;61.490;23.506;2023-04-15T02:03:08;-1.20;1.00
3478;DHT22;37937;61.490;23.506;2023-04-15T02:05:34;-1.30;1.00
3478;DHT22;37937;61.490;23.506;2023-04-15T02:08:00;-1.30;1.00
3478;DHT22;37937;61.490;23.506;2023-04-15T02:10:25;-1.20;1.00
3478;DHT22;37937;61.490;23.506;2023-04-15T02:12:51;-1.30;1.00
3478;DHT22;37937;61.490;23.506;2023-04-15T02:15:18;-1.30;1.00
3478;DHT22;37937;61.490;23.506;2023-04-15T02:17:44;-1.30;1.00
3478;DHT22;37937;61.490;23.506;2023-04-15T02:20:15;-1.40;1.00
3478;DHT22;37937;61.490;23.506;2023-04-15T02:22:41;-1.40;1.00
3478;DHT22;37937;61.490;23.506;2023-04-15T02:25:07;-1.40;1.00
3478;DHT22;37937;61.490;23.506;2023-04-15T02:27:33;-1.40;1.00
3478;DHT22;37937;61.490;23.506;2023-04-15T02:29:58;-1.40;2.10
3478;DHT22;37937;61.490;23.506;2023-04-15T02:32:24;-1.40;1.80
3478;DHT22;37937;61.490;23.506;2023-04-15T02:34:50;-1.40;1.00
3478;DHT22;37937;61.490;23.506;2023-04-15T02:37:15;-1.50;3.50
3478;DHT22;37937;61.490;23.506;2023-04-15T02:39:41;-1.50;4.20
3478;DHT22;37937;61.490;23.506;2023-04-15T02:42:07;-1.50;5.80
3478;DHT22;37937;61.490;23.506;2023-04-15T02:44:32;-1.50;4.00
3478;DHT22;37937;61.490;23.506;2023-04-15T02:46:59;-1.60;5.70
3478;DHT22;37937;61.490;23.506;2023-04-15T02:49:25;-1.60;6.50
3478;DHT22;37937;61.490;23.506;2023-04-15T02:51:50;-1.60;6.30
3478;DHT22;37937;61.490;23.506;2023-04-15T02:54:17;-1.60;6.70
3478;DHT22;37937;61.490;23.506;2023-04-15T02:56:42;-1.60;7.40
3478;DHT22;37937;61.490;23.506;2023-04-15T02:59:08;-1.70;3.10
3478;DHT22;37937;61.490;23.506;2023-04-15T03:01:34;-1.70;6.80
3478;DHT22;37937;61.490;23.506;2023-04-15T03:03:59;-1.70;7.20
3478;DHT22;37937;61.490;23.506;2023-04-15T03:06:25;-1.70;8.20
3478;DHT22;37937;61.490;23.506;2023-04-15T03:08:51;-1.80;7.00
3478;DHT22;37937;61.490;23.506;2023-04-15T03:11:17;-1.80;7.30
3478;DHT22;37937;61.490;23.506;2023-04-15T03:13:43;-1.80;9.00
3478;DHT22;37937;61.490;23.506;2023-04-15T03:16:08;-1.80;9.90
3478;DHT22;37937;61.490;23.506;2023-04-15T03:18:34;-1.80;5.90
3478;DHT22;37937;61.490;23.506;2023-04-15T03:21:00;-1.80;6.80
3478;DHT22;37937;61.490;23.506;2023-04-15T03:23:27;-1.80;6.30
3478;DHT22;37937;61.490;23.506;2023-04-15T03:25:52;-1.80;7.50
3478;DHT22;37937;61.490;23.506;2023-04-15T03:28:21;-1.80;7.00
3478;DHT22;37937;61.490;23.506;2023-04-15T03:30:47;-1.80;9.60
3478;DHT22;37937;61.490;23.506;2023-04-15T03:33:12;-1.80;9.90
3478;DHT22;37937;61.490;23.506;2023-04-15T03:35:38;-1.80;9.80
3478;DHT22;37937;61.490;23.506;2023-04-15T03:38:04;-1.80;10.00
3478;DHT22;37937;61.490;23.506;2023-04-15T03:40:30;-1.80;10.00
3478;DHT22;37937;61.490;23.506;2023-04-15T03:42:55;-1.80;12.40
3478;DHT22;37937;61.490;23.506;2023-04-15T03:45:21;-1.70;11.90
3478;DHT22;37937;61.490;23.506;2023-04-15T03:47:47;-1.80;11.20
3478;DHT22;37937;61.490;23.506;2023-04-15T03:50:14;-1.70;10.30
3478;DHT22;37937;61.490;23.506;2023-04-15T03:52:40;-1.70;11.90
3478;DHT22;37937;61.490;23.506;2023-04-15T03:55:05;-1.70;12.90
3478;DHT22;37937;61.490;23.506;2023-04-15T03:57:32;-1.60;11.00
3478;DHT22;37937;61.490;23.506;2023-04-15T04:00:03;-1.50;13.00
3478;DHT22;37937;61.490;23.506;2023-04-15T04:02:29;-1.20;9.90
3478;DHT22;37937;61.490;23.506;2023-04-15T04:04:55;-0.80;6.60
3478;DHT22;37937;61.490;23.506;2023-04-15T04:07:22;-0.40;6.10
3478;DHT22;37937;61.490;23.506;2023-04-15T04:09:47;-0.10;6.50
3478;DHT22;37937;61.490;23.506;2023-04-15T04:12:13;0.40;5.50
3478;DHT22;37937;61.490;23.506;2023-04-15T04:14:39;0.70;1.00
3478;DHT22;37937;61.490;23.506;2023-04-15T04:17:05;1.10;1.50
3478;DHT22;37937;61.490;23.506;2023-04-15T04:19:31;1.20;1.00
3478;DHT22;37937;61.490;23.506;2023-04-15T04:21:56;1.40;1.00
3478;DHT22;37937;61.490;23.506;2023-04-15T04:24:22;1.60;1.00
3478;DHT22;37937;61.490;23.506;2023-04-15T04:26:48;1.90;1.00
3478;DHT22;37937;61.490;23.506;2023-04-15T04:29:13;2.20;1.00
3478;DHT22;37937;61.490;23.506;2023-04-15T04:31:39;1.50;1.00
3478;DHT22;37937;61.490;23.506;2023-04-15T04:34:05;1.90;1.00
3478;DHT22;37937;61.490;23.506;2023-04-15T04:36:31;2.00;1.00
3478;DHT22;37937;61.490;23.506;2023-04-15T04:38:56;2.10;1.00
3478;DHT22;37937;61.490;23.506;2023-04-15T04:41:22;2.50;1.00
3478;DHT22;37937;61.490;23.506;2023-04-15T04:43:48;2.00;1.00
3478;DHT22;37937;61.490;23.506;2023-04-15T04:46:13;2.40;1.00
3478;DHT22;37937;61.490;23.506;2023-04-15T04:48:39;2.60;1.00
3478;DHT22;37937;61.490;23.506;2023-04-15T04:51:05;3.10;1.00
3478;DHT22;37937;61.490;23.506;2023-04-15T04:53:32;3.40;1.00
3478;DHT22;37937;61.490;23.506;2023-04-15T04:55:57;3.00;1.00
3478;DHT22;37937;61.490;23.506;2023-04-15T04:58:23;3.20;1.00
3478;DHT22;37937;61.490;23.506;2023-04-15T05:00:48;2.90;1.00
3478;DHT22;37937;61.490;23.506;2023-04-15T05:03:14;3.20;1.00
3478;DHT22;37937;61.490;23.506;2023-04-15T05:05:40;3.30;1.00
3478;DHT22;37937;61.490;23.506;2023-04-15T05:08:06;3.50;1.00
3478;DHT22;37937;61.490;23.506;2023-04-15T05:10:31;3.60;1.00
3478;DHT22;37937;61.490;23.506;2023-04-15T05:12:57;3.30;1.00
3478;DHT22;37937;61.490;23.506;2023-04-15T05:15:23;3.10;1.00
3478;DHT22;37937;61.490;23.506;2023-04-15T05:17:48;3.30;1.00
3478;DHT22;37937;61.490;23.506;2023-04-15T05:20:14;2.80;1.00
3478;DHT22;37937;61.490;23.506;2023-04-15T05:22:40;3.10;1.00
3478;DHT22;37937;61.490;23.506;2023-04-15T05:25:06;3.10;1.00
3478;DHT22;37937;61.490;23.506;2023-04-15T05:27:31;3.50;1.00
3478;DHT22;37937;61.490;23.506;2023-04-15T05:29:57;3.60;1.00
3478;DHT22;37937;61.490;23.506;2023-04-15T05:32:22;4.10;1.00
3478;DHT22;37937;61.490;23.506;2023-04-15T05:34:48;3.60;1.00
3478;DHT22;37937;61.490;23.506;2023-04-15T05:37:14;3.90;1.00
3478;DHT22;37937;61.490;23.506;2023-04-15T05:39:39;3.40;1.00
3478;DHT22;37937;61.490;23.506;2023-04-15T05:42:05;3.30;1.00
3478;DHT22;37937;61.490;23.506;2023-04-15T05:44:31;3.50;1.00
3478;DHT22;37937;61.490;23.506;2023-04-15T05:46:56;4.40;1.00
3478;DHT22;37937;61.490;23.506;2023-04-15T05:49:22;4.00;1.00
3478;DHT22;37937;61.490;23.506;2023-04-15T05:51:48;4.20;1.00
3478;DHT22;37937;61.490;23.506;2023-04-15T05:54:14;4.80;1.00
3478;DHT22;37937;61.490;23.506;2023-04-15T05:56:39;5.00;1.00
3478;DHT22;37937;61.490;23.506;2023-04-15T05:59:05;5.20;1.00
3478;DHT22;37937;61.490;23.506;2023-04-15T06:01:34;4.70;1.00
3478;DHT22;37937;61.490;23.506;2023-04-15T06:04:00;4.60;1.00
3478;DHT22;37937;61.490;23.506;2023-04-15T06:06:26;4.20;1.00
3478;DHT22;37937;61.490;23.506;2023-04-15T06:08:51;4.70;1.00
3478;DHT22;37937;61.490;23.506;2023-04-15T06:11:19;4.70;1.00
3478;DHT22;37937;61.490;23.506;2023-04-15T06:13:46;4.90;1.00
3478;DHT22;37937;61.490;23.506;2023-04-15T06:16:11;4.60;1.00
3478;DHT22;37937;61.490;23.506;2023-04-15T06:18:37;4.90;1.00
3478;DHT22;37937;61.490;23.506;2023-04-15T06:21:03;4.80;1.00
3478;DHT22;37937;61.490;23.506;2023-04-15T06:23:29;5.20;1.00
3478;DHT22;37937;61.490;23.506;2023-04-15T06:25:54;4.90;1.00
3478;DHT22;37937;61.490;23.506;2023-04-15T06:28:20;4.60;1.00
3478;DHT22;37937;61.490;23.506;2023-04-15T06:30:45;4.90;1.00
3478;DHT22;37937;61.490;23.506;2023-04-15T06:33:11;5.30;1.00
3478;DHT22;37937;61.490;23.506;2023-04-15T06:35:37;5.20;1.00
3478;DHT22;37937;61.490;23.506;2023-04-15T06:38:03;6.20;1.00
3478;DHT22;37937;61.490;23.506;2023-04-15T06:40:29;5.60;1.00
3478;DHT22;37937;61.490;23.506;2023-04-15T06:42:54;5.60;1.00
3478;DHT22;37937;61.490;23.506;2023-04-15T06:45:20;5.50;1.00
3478;DHT22;37937;61.490;23.506;2023-04-15T06:47:46;6.00;1.00
3478;DHT22;37937;61.490;23.506;2023-04-15T06:50:11;5.30;1.00
3478;DHT22;37937;61.490;23.506;2023-04-15T06:52:37;5.80;1.00
3478;DHT22;37937;61.490;23.506;2023-04-15T06:55:03;6.00;1.00
3478;DHT22;37937;61.490;23.506;2023-04-15T06:57:29;5.40;1.00
3478;DHT22;37937;61.490;23.506;2023-04-15T06:59:55;6.00;1.00
3478;DHT22;37937;61.490;23.506;2023-04-15T07:02:21;5.80;1.00
3478;DHT22;37937;61.490;23.506;2023-04-15T07:04:46;5.70;1.00
3478;DHT22;37937;61.490;23.506;2023-04-15T07:07:13;6.30;1.00
3478;DHT22;37937;61.490;23.506;2023-04-15T07:09:39;5.60;1.00
3478;DHT22;37937;61.490;23.506;2023-04-15T07:12:05;5.80;1.00
3478;DHT22;37937;61.490;23.506;2023-04-15T07:14:30;6.20;1.00
3478;DHT22;37937;61.490;23.506;2023-04-15T07:16:56;5.90;1.00
3478;DHT22;37937;61.490;23.506;2023-04-15T07:19:21;6.10;1.00
3478;DHT22;37937;61.490;23.506;2023-04-15T07:21:48;6.40;1.00
3478;DHT22;37937;61.490;23.506;2023-04-15T07:24:13;6.60;1.00
3478;DHT22;37937;61.490;23.506;2023-04-15T07:26:42;7.00;1.00
3478;DHT22;37937;61.490;23.506;2023-04-15T07:29:08;6.40;1.00
3478;DHT22;37937;61.490;23.506;2023-04-15T07:31:34;6.80;1.00
3478;DHT22;37937;61.490;23.506;2023-04-15T07:34:01;6.20;1.00
3478;DHT22;37937;61.490;23.506;2023-04-15T07:36:27;7.20;1.00
3478;DHT22;37937;61.490;23.506;2023-04-15T07:38:53;6.70;1.00
3478;DHT22;37937;61.490;23.506;2023-04-15T07:41:19;7.20;1.00
3478;DHT22;37937;61.490;23.506;2023-04-15T07:43:46;7.10;1.00
3478;DHT22;37937;61.490;23.506;2023-04-15T07:46:12;6.80;1.00
3478;DHT22;37937;61.490;23.506;2023-04-15T07:48:38;6.90;1.00
3478;DHT22;37937;61.490;23.506;2023-04-15T07:51:03;7.10;1.00
3478;DHT22;37937;61.490;23.506;2023-04-15T07:53:29;7.50;1.00
3478;DHT22;37937;61.490;23.506;2023-04-15T07:55:55;7.10;1.00
3478;DHT22;37937;61.490;23.506;2023-04-15T07:58:21;7.60;1.00
3478;DHT22;37937;61.490;23.506;2023-04-15T08:00:47;7.60;1.00
3478;DHT22;37937;61.490;23.506;2023-04-15T08:03:13;7.70;1.00
3478;DHT22;37937;61.490;23.506;2023-04-15T08:05:39;7.60;1.00
3478;DHT22;37937;61.490;23.506;2023-04-15T08:08:05;7.20;1.00
3478;DHT22;37937;61.490;23.506;2023-04-15T08:10:31;7.30;1.00
3478;DHT22;37937;61.490;23.506;2023-04-15T08:12:57;7.80;1.00
3478;DHT22;37937;61.490;23.506;2023-04-15T08:15:22;7.90;1.00
3478;DHT22;37937;61.490;23.506;2023-04-15T08:17:48;7.40;1.00
3478;DHT22;37937;61.490;23.506;2023-04-15T08:20:14;8.00;1.00
3478;DHT22;37937;61.490;23.506;2023-04-15T08:22:39;8.00;1.00
3478;DHT22;37937;61.490;23.506;2023-04-15T08:25:06;8.00;1.00
3478;DHT22;37937;61.490;23.506;2023-04-15T08:27:31;8.00;1.00
3478;DHT22;37937;61.490;23.506;2023-04-15T08:29:57;7.60;1.00
3478;DHT22;37937;61.490;23.506;2023-04-15T08:32:22;7.40;1.00
3478;DHT22;37937;61.490;23.506;2023-04-15T08:34:50;7.90;1.00
3478;DHT22;37937;61.490;23.506;2023-04-15T08:37:16;8.30;1.00
3478;DHT22;37937;61.490;23.506;2023-04-15T08:39:41;8.10;1.00
3478;DHT22;37937;61.490;23.506;2023-04-15T08:42:14;8.40;1.00
3478;DHT22;37937;61.490;23.506;2023-04-15T08:44:40;8.70;1.00
3478;DHT22;37937;61.490;23.506;2023-04-15T08:47:07;9.10;1.00
3478;DHT22;37937;61.490;23.506;2023-04-15T08:49:32;8.50;1.00
3478;DHT22;37937;61.490;23.506;2023-04-15T08:52:00;9.10;1.00
3478;DHT22;37937;61.490;23.506;2023-04-15T08:54:26;8.90;1.00
3478;DHT22;37937;61.490;23.506;2023-04-15T08:56:52;8.90;1.00
3478;DHT22;37937;61.490;23.506;2023-04-15T08:59:18;9.10;1.00
3478;DHT22;37937;61.490;23.506;2023-04-15T09:01:45;9.40;1.00
3478;DHT22;37937;61.490;23.506;2023-04-15T09:04:11;9.80;1.00
3478;DHT22;37937;61.490;23.506;2023-04-15T09:06:37;9.50;1.00
3478;DHT22;37937;61.490;23.506;2023-04-15T09:09:03;9.20;1.00
3478;DHT22;37937;61.490;23.506;2023-04-15T09:11:29;9.50;1.00
3478;DHT22;37937;61.490;23.506;2023-04-15T09:13:55;9.70;1.00
3478;DHT22;37937;61.490;23.506;2023-04-15T09:16:21;9.50;1.00
3478;DHT22;37937;61.490;23.506;2023-04-15T09:18:47;9.10;1.00
3478;DHT22;37937;61.490;23.506;2023-04-15T09:21:13;9.10;1.00
3478;DHT22;37937;61.490;23.506;2023-04-15T09:24:00;9.30;1.00
3478;DHT22;37937;61.490;23.506;2023-04-15T09:26:43;10.20;1.00
3478;DHT22;37937;61.490;23.506;2023-04-15T09:29:09;10.10;1.00
3478;DHT22;37937;61.490;23.506;2023-04-15T09:31:38;10.40;1.00
3478;DHT22;37937;61.490;23.506;2023-04-15T09:34:03;10.10;1.00
3478;DHT22;37937;61.490;23.506;2023-04-15T09:36:35;10.50;1.00
3478;DHT22;37937;61.490;23.506;2023-04-15T09:39:02;10.40;1.00
3478;DHT22;37937;61.490;23.506;2023-04-15T09:41:28;10.40;1.00
3478;DHT22;37937;61.490;23.506;2023-04-15T09:43:54;10.20;1.00
3478;DHT22;37937;61.490;23.506;2023-04-15T09:46:19;10.10;1.00
3478;DHT22;37937;61.490;23.506;2023-04-15T09:48:45;10.30;1.00
3478;DHT22;37937;61.490;23.506;2023-04-15T09:51:10;10.00;1.00
3478;DHT22;37937;61.490;23.506;2023-04-15T09:53:36;9.90;1.00
3478;DHT22;37937;61.490;23.506;2023-04-15T09:56:05;9.80;1.00
3478;DHT22;37937;61.490;23.506;2023-04-15T09:58:32;10.00;1.00
3478;DHT22;37937;61.490;23.506;2023-04-15T10:00:59;9.90;1.00
3478;DHT22;37937;61.490;23.506;2023-04-15T10:03:26;10.10;1.00
3478;DHT22;37937;61.490;23.506;2023-04-15T10:05:53;10.10;1.00
3478;DHT22;37937;61.490;23.506;2023-04-15T10:08:21;10.70;1.00
3478;DHT22;37937;61.490;23.506;2023-04-15T10:39:01;10.70;1.00
3478;DHT22;37937;61.490;23.506;2023-04-15T10:41:27;10.90;1.00
3478;DHT22;37937;61.490;23.506;2023-04-15T10:44:01;11.20;1.00
3478;DHT22;37937;61.490;23.506;2023-04-15T10:49:24;11.20;1.00
3478;DHT22;37937;61.490;23.506;2023-04-15T10:51:51;11.30;1.00
3478;DHT22;37937;61.490;23.506;2023-04-15T10:57:05;11.80;1.00
3478;DHT22;37937;61.490;23.506;2023-04-15T10:59:32;11.80;1.00
3478;DHT22;37937;61.490;23.506;2023-04-15T11:02:02;10.70;1.00
3478;DHT22;37937;61.490;23.506;2023-04-15T11:07:12;11.30;1.00
3478;DHT22;37937;61.490;23.506;2023-04-15T11:09:38;11.00;1.00
3478;DHT22;37937;61.490;23.506;2023-04-15T11:12:08;11.20;1.00
3478;DHT22;37937;61.490;23.506;2023-04-15T11:14:37;11.00;1.00
3478;DHT22;37937;61.490;23.506;2023-04-15T11:17:03;10.70;1.00
3478;DHT22;37937;61.490;23.506;2023-04-15T11:19:35;11.00;1.00
3478;DHT22;37937;61.490;23.506;2023-04-15T11:22:05;11.50;1.00
3478;DHT22;37937;61.490;23.506;2023-04-15T11:24:31;11.20;1.00
3478;DHT22;37937;61.490;23.506;2023-04-15T11:26:57;11.30;1.00
3478;DHT22;37937;61.490;23.506;2023-04-15T11:29:27;10.50;1.00
3478;DHT22;37937;61.490;23.506;2023-04-15T11:32:00;10.60;1.00
3478;DHT22;37937;61.490;23.506;2023-04-15T11:34:26;10.80;1.00
3478;DHT22;37937;61.490;23.506;2023-04-15T11:36:52;10.60;1.00
3478;DHT22;37937;61.490;23.506;2023-04-15T11:39:21;10.60;1.00
3478;DHT22;37937;61.490;23.506;2023-04-15T11:41:47;10.90;1.00
3478;DHT22;37937;61.490;23.506;2023-04-15T11:44:16;10.60;1.00
3478;DHT22;37937;61.490;23.506;2023-04-15T11:46:42;10.60;1.00
3478;DHT22;37937;61.490;23.506;2023-04-15T11:49:07;10.60;1.00
3478;DHT22;37937;61.490;23.506;2023-04-15T11:51:33;10.60;1.00
3478;DHT22;37937;61.490;23.506;2023-04-15T11:53:59;10.90;1.00
3478;DHT22;37937;61.490;23.506;2023-04-15T11:56:25;10.30;1.00
3478;DHT22;37937;61.490;23.506;2023-04-15T11:58:52;10.40;1.00
3478;DHT22;37937;61.490;23.506;2023-04-15T12:01:18;10.50;1.00
3478;DHT22;37937;61.490;23.506;2023-04-15T12:03:45;10.60;1.00
3478;DHT22;37937;61.490;23.506;2023-04-15T12:06:12;10.70;1.00
3478;DHT22;37937;61.490;23.506;2023-04-15T12:08:57;10.70;1.00
3478;DHT22;37937;61.490;23.506;2023-04-15T12:13:56;10.20;1.00
3478;DHT22;37937;61.490;23.506;2023-04-15T12:16:23;10.20;1.00
3478;DHT22;37937;61.490;23.506;2023-04-15T12:18:52;10.20;1.00
3478;DHT22;37937;61.490;23.506;2023-04-15T12:21:20;10.20;1.00
3478;DHT22;37937;61.490;23.506;2023-04-15T12:23:47;10.40;1.00
3478;DHT22;37937;61.490;23.506;2023-04-15T12:26:13;10.20;1.00
3478;DHT22;37937;61.490;23.506;2023-04-15T12:28:39;10.60;1.00
3478;DHT22;37937;61.490;23.506;2023-04-15T12:31:06;10.60;1.00
3478;DHT22;37937;61.490;23.506;2023-04-15T12:33:32;10.40;1.00
3478;DHT22;37937;61.490;23.506;2023-04-15T12:35:58;10.60;1.00
3478;DHT22;37937;61.490;23.506;2023-04-15T12:38:23;10.30;1.00
3478;DHT22;37937;61.490;23.506;2023-04-15T12:40:49;10.30;1.00
3478;DHT22;37937;61.490;23.506;2023-04-15T12:43:15;10.30;1.00
3478;DHT22;37937;61.490;23.506;2023-04-15T12:45:41;10.30;1.00
3478;DHT22;37937;61.490;23.506;2023-04-15T12:48:06;10.20;1.00
3478;DHT22;37937;61.490;23.506;2023-04-15T12:50:36;10.20;1.00
3478;DHT22;37937;61.490;23.506;2023-04-15T12:53:02;10.00;1.00
3478;DHT22;37937;61.490;23.506;2023-04-15T12:55:28;10.00;1.00
3478;DHT22;37937;61.490;23.506;2023-04-15T12:57:55;10.10;1.00
3478;DHT22;37937;61.490;23.506;2023-04-15T13:00:21;10.10;1.00
3478;DHT22;37937;61.490;23.506;2023-04-15T13:02:46;9.90;1.00
3478;DHT22;37937;61.490;23.506;2023-04-15T13:05:12;9.80;1.00
3478;DHT22;37937;61.490;23.506;2023-04-15T13:07:40;9.70;1.00
3478;DHT22;37937;61.490;23.506;2023-04-15T13:10:06;9.70;1.00
3478;DHT22;37937;61.490;23.506;2023-04-15T13:12:32;9.80;1.00
3478;DHT22;37937;61.490;23.506;2023-04-15T13:15:01;9.50;1.00
3478;DHT22;37937;61.490;23.506;2023-04-15T13:17:26;9.40;1.00
3478;DHT22;37937;61.490;23.506;2023-04-15T13:19:52;9.50;1.00
3478;DHT22;37937;61.490;23.506;2023-04-15T13:22:17;9.70;1.00
3478;DHT22;37937;61.490;23.506;2023-04-15T13:24:43;9.50;1.00
3478;DHT22;37937;61.490;23.506;2023-04-15T13:27:08;9.60;1.00
3478;DHT22;37937;61.490;23.506;2023-04-15T13:29:34;9.50;1.00
3478;DHT22;37937;61.490;23.506;2023-04-15T13:32:00;9.50;1.00
3478;DHT22;37937;61.490;23.506;2023-04-15T13:34:25;9.30;1.00
3478;DHT22;37937;61.490;23.506;2023-04-15T13:36:51;9.30;1.00
3478;DHT22;37937;61.490;23.506;2023-04-15T13:39:16;9.40;1.00
3478;DHT22;37937;61.490;23.506;2023-04-15T13:41:42;9.30;1.00
3478;DHT22;37937;61.490;23.506;2023-04-15T13:44:08;9.20;1.00
3478;DHT22;37937;61.490;23.506;2023-04-15T13:46:33;9.10;1.00
3478;DHT22;37937;61.490;23.506;2023-04-15T13:48:59;9.10;1.00
3478;DHT22;37937;61.490;23.506;2023-04-15T13:51:24;9.10;1.00
3478;DHT22;37937;61.490;23.506;2023-04-15T13:53:51;9.20;1.00
3478;DHT22;37937;61.490;23.506;2023-04-15T13:56:16;9.30;1.00
3478;DHT22;37937;61.490;23.506;2023-04-15T13:58:42;9.20;1.00
3478;DHT22;37937;61.490;23.506;2023-04-15T14:01:08;9.10;1.00
3478;DHT22;37937;61.490;23.506;2023-04-15T14:03:33;9.10;1.00
3478;DHT22;37937;61.490;23.506;2023-04-15T14:05:59;9.10;1.00
3478;DHT22;37937;61.490;23.506;2023-04-15T14:08:25;9.10;1.00
3478;DHT22;37937;61.490;23.506;2023-04-15T14:10:51;9.10;1.00
3478;DHT22;37937;61.490;23.506;2023-04-15T14:13:16;9.10;1.00
3478;DHT22;37937;61.490;23.506;2023-04-15T14:15:43;9.10;1.00
3478;DHT22;37937;61.490;23.506;2023-04-15T14:18:09;9.00;1.00
3478;DHT22;37937;61.490;23.506;2023-04-15T14:20:35;9.00;1.00
3478;DHT22;37937;61.490;23.506;2023-04-15T14:23:00;9.00;1.00
3478;DHT22;37937;61.490;23.506;2023-04-15T14:25:26;9.00;1.00
3478;DHT22;37937;61.490;23.506;2023-04-15T14:27:52;9.00;1.00
3478;DHT22;37937;61.490;23.506;2023-04-15T14:30:17;9.00;1.00
3478;DHT22;37937;61.490;23.506;2023-04-15T14:32:43;9.00;1.00
3478;DHT22;37937;61.490;23.506;2023-04-15T14:35:09;8.90;1.00
3478;DHT22;37937;61.490;23.506;2023-04-15T14:37:35;8.90;1.00
3478;DHT22;37937;61.490;23.506;2023-04-15T14:40:00;8.90;1.00
3478;DHT22;37937;61.490;23.506;2023-04-15T14:42:26;9.00;1.00
3478;DHT22;37937;61.490;23.506;2023-04-15T14:44:51;9.00;1.00
3478;DHT22;37937;61.490;23.506;2023-04-15T14:47:17;8.90;1.00
3478;DHT22;37937;61.490;23.506;2023-04-15T14:49:43;8.90;1.00
3478;DHT22;37937;61.490;23.506;2023-04-15T14:52:08;8.90;1.00
3478;DHT22;37937;61.490;23.506;2023-04-15T14:54:34;8.90;1.00
3478;DHT22;37937;61.490;23.506;2023-04-15T14:56:59;8.90;1.00
3478;DHT22;37937;61.490;23.506;2023-04-15T14:59:26;8.80;1.00
3478;DHT22;37937;61.490;23.506;2023-04-15T15:01:52;8.80;1.00
3478;DHT22;37937;61.490;23.506;2023-04-15T15:04:17;8.80;1.00
3478;DHT22;37937;61.490;23.506;2023-04-15T15:06:43;8.80;1.00
3478;DHT22;37937;61.490;23.506;2023-04-15T15:09:09;8.80;1.00
3478;DHT22;37937;61.490;23.506;2023-04-15T15:11:34;8.80;1.00
3478;DHT22;37937;61.490;23.506;2023-04-15T15:14:00;8.70;1.00
3478;DHT22;37937;61.490;23.506;2023-04-15T15:16:26;8.70;1.00
3478;DHT22;37937;61.490;23.506;2023-04-15T15:18:52;8.70;1.00
3478;DHT22;37937;61.490;23.506;2023-04-15T15:21:17;8.70;1.00
3478;DHT22;37937;61.490;23.506;2023-04-15T15:23:43;8.70;1.00
3478;DHT22;37937;61.490;23.506;2023-04-15T15:26:09;8.80;1.00
3478;DHT22;37937;61.490;23.506;2023-04-15T15:28:35;8.70;1.00
3478;DHT22;37937;61.490;23.506;2023-04-15T15:31:01;8.70;1.00
3478;DHT22;37937;61.490;23.506;2023-04-15T15:33:27;8.70;1.00
3478;DHT22;37937;61.490;23.506;2023-04-15T15:35:52;8.60;1.00
3478;DHT22;37937;61.490;23.506;2023-04-15T15:38:18;8.60;1.00
3478;DHT22;37937;61.490;23.506;2023-04-15T15:40:43;8.60;1.00
3478;DHT22;37937;61.490;23.506;2023-04-15T15:43:09;8.60;1.00
3478;DHT22;37937;61.490;23.506;2023-04-15T15:45:35;8.50;1.00
3478;DHT22;37937;61.490;23.506;2023-04-15T15:48:00;8.50;1.00
3478;DHT22;37937;61.490;23.506;2023-04-15T15:50:26;8.40;1.00
3478;DHT22;37937;61.490;23.506;2023-04-15T15:52:52;8.40;1.00
3478;DHT22;37937;61.490;23.506;2023-04-15T15:55:17;8.40;1.00
3478;DHT22;37937;61.490;23.506;2023-04-15T15:57:43;8.40;1.00
3478;DHT22;37937;61.490;23.506;2023-04-15T16:00:09;8.40;1.00
3478;DHT22;37937;61.490;23.506;2023-04-15T16:02:35;8.40;1.00
3478;DHT22;37937;61.490;23.506;2023-04-15T16:05:00;8.40;1.00
3478;DHT22;37937;61.490;23.506;2023-04-15T16:07:29;8.30;1.00
3478;DHT22;37937;61.490;23.506;2023-04-15T16:09:56;8.30;1.00
3478;DHT22;37937;61.490;23.506;2023-04-15T16:12:21;8.20;1.00
3478;DHT22;37937;61.490;23.506;2023-04-15T16:14:47;8.30;1.00
3478;DHT22;37937;61.490;23.506;2023-04-15T16:17:12;8.20;1.00
3478;DHT22;37937;61.490;23.506;2023-04-15T16:19:38;8.20;1.00
3478;DHT22;37937;61.490;23.506;2023-04-15T16:22:04;8.20;1.00
3478;DHT22;37937;61.490;23.506;2023-04-15T16:24:29;8.10;1.00
3478;DHT22;37937;61.490;23.506;2023-04-15T16:26:55;8.10;1.00